sensor_id;sensor_type;location;lat;lon;timestamp;P1;durP1;ratioP1;P2;durP2;ratioP2
65031;SDS011;51593;55.714;37.436;2022-12-11T00:00:49;22.38;;;9.20;;
65031;SDS011;51593;55.714;37.436;2022-12-11T00:03:16;14.60;;;9.02;;
65031;SDS011;51593;55.714;37.436;2022-12-11T00:05:42;16.95;;;9.07;;
65031;SDS011;51593;55.714;37.436;2022-12-11T00:08:09;18.48;;;9.63;;
65031;SDS011;51593;55.714;37.436;2022-12-11T00:10:35;23.48;;;9.70;;
65031;SDS011;51593;55.714;37.436;2022-12-11T00:13:01;20.63;;;10.10;;
65031;SDS011;51593;55.714;37.436;2022-12-11T00:15:27;20.85;;;10.40;;
65031;SDS011;51593;55.714;37.436;2022-12-11T00:17:53;21.00;;;9.95;;
65031;SDS011;51593;55.714;37.436;2022-12-11T00:20:18;21.67;;;9.50;;
65031;SDS011;51593;55.714;37.436;2022-12-11T00:22:44;21.40;;;10.63;;
65031;SDS011;51593;55.714;37.436;2022-12-11T00:25:10;23.50;;;12.25;;
65031;SDS011;51593;55.714;37.436;2022-12-11T00:27:36;22.70;;;10.98;;
65031;SDS011;51593;55.714;37.436;2022-12-11T00:30:02;21.75;;;12.30;;
65031;SDS011;51593;55.714;37.436;2022-12-11T00:32:30;24.70;;;12.05;;
65031;SDS011;51593;55.714;37.436;2022-12-11T00:34:56;23.50;;;11.98;;
65031;SDS011;51593;55.714;37.436;2022-12-11T00:37:22;21.92;;;11.93;;
65031;SDS011;51593;55.714;37.436;2022-12-11T00:39:48;25.02;;;11.93;;
65031;SDS011;51593;55.714;37.436;2022-12-11T00:42:14;24.17;;;12.52;;
65031;SDS011;51593;55.714;37.436;2022-12-11T00:44:39;22.33;;;12.38;;
65031;SDS011;51593;55.714;37.436;2022-12-11T00:47:05;26.83;;;10.90;;
65031;SDS011;51593;55.714;37.436;2022-12-11T00:49:31;25.00;;;11.90;;
65031;SDS011;51593;55.714;37.436;2022-12-11T00:51:57;24.90;;;11.57;;
65031;SDS011;51593;55.714;37.436;2022-12-11T00:54:23;22.00;;;11.70;;
65031;SDS011;51593;55.714;37.436;2022-12-11T00:56:49;29.75;;;12.18;;
65031;SDS011;51593;55.714;37.436;2022-12-11T00:59:15;23.23;;;11.90;;
65031;SDS011;51593;55.714;37.436;2022-12-11T01:01:41;26.50;;;12.73;;
65031;SDS011;51593;55.714;37.436;2022-12-11T01:04:08;33.45;;;13.05;;
65031;SDS011;51593;55.714;37.436;2022-12-11T01:06:34;24.80;;;11.93;;
65031;SDS011;51593;55.714;37.436;2022-12-11T01:08:59;26.83;;;11.82;;
65031;SDS011;51593;55.714;37.436;2022-12-11T01:11:44;26.50;;;11.60;;
65031;SDS011;51593;55.714;37.436;2022-12-11T01:14:10;35.08;;;12.27;;
65031;SDS011;51593;55.714;37.436;2022-12-11T01:16:37;28.48;;;11.70;;
65031;SDS011;51593;55.714;37.436;2022-12-11T01:19:04;45.97;;;13.50;;
65031;SDS011;51593;55.714;37.436;2022-12-11T01:21:30;37.88;;;13.38;;
65031;SDS011;51593;55.714;37.436;2022-12-11T01:23:56;43.03;;;12.73;;
65031;SDS011;51593;55.714;37.436;2022-12-11T01:26:21;42.13;;;13.18;;
65031;SDS011;51593;55.714;37.436;2022-12-11T01:28:48;36.97;;;13.10;;
65031;SDS011;51593;55.714;37.436;2022-12-11T01:31:15;72.60;;;13.57;;
65031;SDS011;51593;55.714;37.436;2022-12-11T01:33:41;41.47;;;12.43;;
65031;SDS011;51593;55.714;37.436;2022-12-11T01:36:11;26.92;;;11.00;;
65031;SDS011;51593;55.714;37.436;2022-12-11T01:38:39;44.38;;;12.45;;
65031;SDS011;51593;55.714;37.436;2022-12-11T01:41:05;80.85;;;13.30;;
65031;SDS011;51593;55.714;37.436;2022-12-11T01:43:31;29.33;;;12.68;;
65031;SDS011;51593;55.714;37.436;2022-12-11T01:45:57;60.55;;;14.18;;
65031;SDS011;51593;55.714;37.436;2022-12-11T01:48:24;40.85;;;12.88;;
65031;SDS011;51593;55.714;37.436;2022-12-11T01:50:54;62.90;;;12.95;;
65031;SDS011;51593;55.714;37.436;2022-12-11T01:53:26;96.65;;;13.07;;
65031;SDS011;51593;55.714;37.436;2022-12-11T01:55:58;102.90;;;14.25;;
65031;SDS011;51593;55.714;37.436;2022-12-11T01:58:25;43.80;;;12.90;;
65031;SDS011;51593;55.714;37.436;2022-12-11T02:00:53;70.97;;;12.88;;
65031;SDS011;51593;55.714;37.436;2022-12-11T02:03:20;31.55;;;13.70;;
65031;SDS011;51593;55.714;37.436;2022-12-11T02:05:45;55.53;;;13.20;;
65031;SDS011;51593;55.714;37.436;2022-12-11T02:08:12;56.85;;;12.40;;
65031;SDS011;51593;55.714;37.436;2022-12-11T02:10:47;49.72;;;12.80;;
65031;SDS011;51593;55.714;37.436;2022-12-11T02:13:28;113.05;;;14.65;;
65031;SDS011;51593;55.714;37.436;2022-12-11T02:16:36;41.05;;;13.23;;
65031;SDS011;51593;55.714;37.436;2022-12-11T02:19:13;28.02;;;12.57;;
65031;SDS011;51593;55.714;37.436;2022-12-11T02:21:47;39.47;;;12.95;;
65031;SDS011;51593;55.714;37.436;2022-12-11T02:32:37;41.25;;;11.93;;
65031;SDS011;51593;55.714;37.436;2022-12-11T02:37:48;87.22;;;13.85;;
65031;SDS011;51593;55.714;37.436;2022-12-11T02:40:20;58.13;;;13.25;;
65031;SDS011;51593;55.714;37.436;2022-12-11T02:42:48;58.65;;;12.65;;
65031;SDS011;51593;55.714;37.436;2022-12-11T02:45:15;35.70;;;12.52;;
65031;SDS011;51593;55.714;37.436;2022-12-11T02:47:42;52.22;;;12.27;;
65031;SDS011;51593;55.714;37.436;2022-12-11T02:50:10;102.50;;;15.15;;
65031;SDS011;51593;55.714;37.436;2022-12-11T02:52:38;81.22;;;13.15;;
65031;SDS011;51593;55.714;37.436;2022-12-11T02:55:06;41.33;;;11.73;;
65031;SDS011;51593;55.714;37.436;2022-12-11T03:00:08;39.53;;;11.52;;
65031;SDS011;51593;55.714;37.436;2022-12-11T03:02:35;64.93;;;11.93;;
65031;SDS011;51593;55.714;37.436;2022-12-11T03:05:01;40.38;;;11.25;;
65031;SDS011;51593;55.714;37.436;2022-12-11T03:07:30;80.03;;;12.75;;
65031;SDS011;51593;55.714;37.436;2022-12-11T03:09:59;28.50;;;12.35;;
65031;SDS011;51593;55.714;37.436;2022-12-11T03:12:29;63.35;;;11.68;;
65031;SDS011;51593;55.714;37.436;2022-12-11T03:15:00;30.23;;;11.63;;
65031;SDS011;51593;55.714;37.436;2022-12-11T03:17:29;41.63;;;11.90;;
65031;SDS011;51593;55.714;37.436;2022-12-11T03:23:03;30.85;;;11.48;;
65031;SDS011;51593;55.714;37.436;2022-12-11T03:30:56;31.48;;;9.90;;
65031;SDS011;51593;55.714;37.436;2022-12-11T03:33:24;44.53;;;10.25;;
65031;SDS011;51593;55.714;37.436;2022-12-11T03:35:56;38.03;;;10.13;;
65031;SDS011;51593;55.714;37.436;2022-12-11T03:38:31;41.40;;;9.57;;
65031;SDS011;51593;55.714;37.436;2022-12-11T03:41:02;70.35;;;10.80;;
65031;SDS011;51593;55.714;37.436;2022-12-11T03:43:29;37.25;;;10.70;;
65031;SDS011;51593;55.714;37.436;2022-12-11T03:45:56;37.08;;;10.52;;
65031;SDS011;51593;55.714;37.436;2022-12-11T03:48:23;70.72;;;11.35;;
65031;SDS011;51593;55.714;37.436;2022-12-11T03:50:51;74.85;;;11.60;;
65031;SDS011;51593;55.714;37.436;2022-12-11T03:53:18;61.13;;;11.85;;
65031;SDS011;51593;55.714;37.436;2022-12-11T03:55:44;73.57;;;12.02;;
65031;SDS011;51593;55.714;37.436;2022-12-11T03:58:10;40.88;;;11.35;;
65031;SDS011;51593;55.714;37.436;2022-12-11T04:00:36;56.30;;;10.60;;
65031;SDS011;51593;55.714;37.436;2022-12-11T04:03:02;50.30;;;10.50;;
65031;SDS011;51593;55.714;37.436;2022-12-11T04:08:03;28.02;;;8.57;;
65031;SDS011;51593;55.714;37.436;2022-12-11T04:10:28;29.38;;;10.90;;
65031;SDS011;51593;55.714;37.436;2022-12-11T04:12:54;44.95;;;9.65;;
65031;SDS011;51593;55.714;37.436;2022-12-11T04:15:20;57.20;;;11.80;;
65031;SDS011;51593;55.714;37.436;2022-12-11T04:17:46;38.47;;;9.80;;
65031;SDS011;51593;55.714;37.436;2022-12-11T04:20:30;58.05;;;10.57;;
65031;SDS011;51593;55.714;37.436;2022-12-11T04:23:15;45.75;;;11.50;;
65031;SDS011;51593;55.714;37.436;2022-12-11T04:26:09;52.40;;;11.65;;
65031;SDS011;51593;55.714;37.436;2022-12-11T04:28:39;25.33;;;9.85;;
65031;SDS011;51593;55.714;37.436;2022-12-11T04:31:06;50.10;;;10.73;;
65031;SDS011;51593;55.714;37.436;2022-12-11T04:33:36;30.77;;;10.60;;
65031;SDS011;51593;55.714;37.436;2022-12-11T04:36:01;72.78;;;11.23;;
65031;SDS011;51593;55.714;37.436;2022-12-11T04:38:28;31.33;;;11.38;;
65031;SDS011;51593;55.714;37.436;2022-12-11T04:41:00;41.03;;;11.20;;
65031;SDS011;51593;55.714;37.436;2022-12-11T04:43:28;66.17;;;13.53;;
65031;SDS011;51593;55.714;37.436;2022-12-11T04:46:01;28.98;;;9.65;;
65031;SDS011;51593;55.714;37.436;2022-12-11T04:48:27;38.95;;;10.63;;
65031;SDS011;51593;55.714;37.436;2022-12-11T04:50:53;43.88;;;10.85;;
65031;SDS011;51593;55.714;37.436;2022-12-11T04:53:18;69.07;;;11.07;;
65031;SDS011;51593;55.714;37.436;2022-12-11T04:55:44;56.45;;;11.30;;
65031;SDS011;51593;55.714;37.436;2022-12-11T04:58:10;63.72;;;11.05;;
65031;SDS011;51593;55.714;37.436;2022-12-11T05:00:36;49.70;;;10.85;;
65031;SDS011;51593;55.714;37.436;2022-12-11T05:03:02;67.65;;;11.77;;
65031;SDS011;51593;55.714;37.436;2022-12-11T05:05:28;100.72;;;12.52;;
65031;SDS011;51593;55.714;37.436;2022-12-11T05:07:53;31.85;;;10.98;;
65031;SDS011;51593;55.714;37.436;2022-12-11T05:10:37;43.10;;;10.73;;
65031;SDS011;51593;55.714;37.436;2022-12-11T05:13:03;41.60;;;9.93;;
65031;SDS011;51593;55.714;37.436;2022-12-11T05:15:29;43.75;;;10.65;;
65031;SDS011;51593;55.714;37.436;2022-12-11T05:17:54;50.95;;;10.73;;
65031;SDS011;51593;55.714;37.436;2022-12-11T05:20:20;41.42;;;10.15;;
65031;SDS011;51593;55.714;37.436;2022-12-11T05:22:46;38.28;;;10.93;;
65031;SDS011;51593;55.714;37.436;2022-12-11T05:25:11;39.88;;;11.07;;
65031;SDS011;51593;55.714;37.436;2022-12-11T05:27:38;32.78;;;10.70;;
65031;SDS011;51593;55.714;37.436;2022-12-11T05:30:03;26.27;;;9.88;;
65031;SDS011;51593;55.714;37.436;2022-12-11T05:32:30;30.45;;;10.32;;
65031;SDS011;51593;55.714;37.436;2022-12-11T05:34:56;47.42;;;10.10;;
65031;SDS011;51593;55.714;37.436;2022-12-11T05:37:21;39.53;;;10.95;;
65031;SDS011;51593;55.714;37.436;2022-12-11T05:39:47;42.05;;;11.48;;
65031;SDS011;51593;55.714;37.436;2022-12-11T05:42:13;45.20;;;10.90;;
65031;SDS011;51593;55.714;37.436;2022-12-11T05:44:39;37.15;;;11.27;;
65031;SDS011;51593;55.714;37.436;2022-12-11T05:47:04;31.15;;;10.90;;
65031;SDS011;51593;55.714;37.436;2022-12-11T05:49:30;25.63;;;10.38;;
65031;SDS011;51593;55.714;37.436;2022-12-11T05:51:56;27.48;;;11.70;;
65031;SDS011;51593;55.714;37.436;2022-12-11T05:54:21;31.67;;;11.20;;
65031;SDS011;51593;55.714;37.436;2022-12-11T05:56:48;27.13;;;9.98;;
65031;SDS011;51593;55.714;37.436;2022-12-11T05:59:15;26.70;;;10.52;;
65031;SDS011;51593;55.714;37.436;2022-12-11T06:01:43;37.13;;;11.60;;
65031;SDS011;51593;55.714;37.436;2022-12-11T06:04:09;28.38;;;11.10;;
65031;SDS011;51593;55.714;37.436;2022-12-11T06:06:36;30.17;;;11.38;;
65031;SDS011;51593;55.714;37.436;2022-12-11T06:09:02;29.85;;;11.70;;
65031;SDS011;51593;55.714;37.436;2022-12-11T06:11:32;27.42;;;11.48;;
65031;SDS011;51593;55.714;37.436;2022-12-11T06:13:59;29.60;;;11.10;;
65031;SDS011;51593;55.714;37.436;2022-12-11T06:16:26;27.92;;;11.65;;
65031;SDS011;51593;55.714;37.436;2022-12-11T06:18:52;27.90;;;10.70;;
65031;SDS011;51593;55.714;37.436;2022-12-11T06:21:24;28.23;;;11.52;;
65031;SDS011;51593;55.714;37.436;2022-12-11T06:23:58;31.17;;;11.88;;
65031;SDS011;51593;55.714;37.436;2022-12-11T06:26:25;30.27;;;11.75;;
65031;SDS011;51593;55.714;37.436;2022-12-11T06:28:52;41.17;;;11.93;;
65031;SDS011;51593;55.714;37.436;2022-12-11T06:31:17;26.92;;;12.23;;
65031;SDS011;51593;55.714;37.436;2022-12-11T06:33:43;28.25;;;12.52;;
65031;SDS011;51593;55.714;37.436;2022-12-11T06:36:11;26.83;;;11.82;;
65031;SDS011;51593;55.714;37.436;2022-12-11T06:38:38;27.83;;;12.02;;
65031;SDS011;51593;55.714;37.436;2022-12-11T06:41:05;24.90;;;11.98;;
65031;SDS011;51593;55.714;37.436;2022-12-11T06:43:33;27.95;;;11.45;;
65031;SDS011;51593;55.714;37.436;2022-12-11T06:46:02;62.20;;;13.27;;
65031;SDS011;51593;55.714;37.436;2022-12-11T06:48:31;39.85;;;13.77;;
65031;SDS011;51593;55.714;37.436;2022-12-11T06:50:57;29.90;;;12.80;;
65031;SDS011;51593;55.714;37.436;2022-12-11T06:53:23;31.45;;;12.65;;
65031;SDS011;51593;55.714;37.436;2022-12-11T06:55:49;43.10;;;13.77;;
65031;SDS011;51593;55.714;37.436;2022-12-11T06:58:14;43.45;;;13.15;;
65031;SDS011;51593;55.714;37.436;2022-12-11T07:00:40;37.45;;;12.75;;
65031;SDS011;51593;55.714;37.436;2022-12-11T07:03:06;35.83;;;13.65;;
65031;SDS011;51593;55.714;37.436;2022-12-11T07:05:33;34.65;;;14.05;;
65031;SDS011;51593;55.714;37.436;2022-12-11T07:07:59;30.13;;;13.07;;
65031;SDS011;51593;55.714;37.436;2022-12-11T07:10:25;35.17;;;13.25;;
65031;SDS011;51593;55.714;37.436;2022-12-11T07:12:51;32.97;;;14.32;;
65031;SDS011;51593;55.714;37.436;2022-12-11T07:15:17;38.47;;;14.88;;
65031;SDS011;51593;55.714;37.436;2022-12-11T07:17:43;30.92;;;12.43;;
65031;SDS011;51593;55.714;37.436;2022-12-11T07:20:09;36.50;;;14.18;;
65031;SDS011;51593;55.714;37.436;2022-12-11T07:22:35;33.53;;;13.73;;
65031;SDS011;51593;55.714;37.436;2022-12-11T07:25:02;30.38;;;11.43;;
65031;SDS011;51593;55.714;37.436;2022-12-11T07:27:29;31.17;;;13.50;;
65031;SDS011;51593;55.714;37.436;2022-12-11T07:29:54;28.00;;;12.57;;
65031;SDS011;51593;55.714;37.436;2022-12-11T07:32:20;33.58;;;13.02;;
65031;SDS011;51593;55.714;37.436;2022-12-11T07:34:49;28.85;;;11.93;;
65031;SDS011;51593;55.714;37.436;2022-12-11T07:37:15;32.17;;;12.98;;
65031;SDS011;51593;55.714;37.436;2022-12-11T07:39:41;29.52;;;11.75;;
65031;SDS011;51593;55.714;37.436;2022-12-11T07:42:07;29.13;;;12.05;;
65031;SDS011;51593;55.714;37.436;2022-12-11T07:44:33;35.50;;;13.05;;
65031;SDS011;51593;55.714;37.436;2022-12-11T07:46:59;35.03;;;14.27;;
65031;SDS011;51593;55.714;37.436;2022-12-11T07:49:24;35.63;;;13.52;;
65031;SDS011;51593;55.714;37.436;2022-12-11T07:51:50;31.80;;;14.18;;
65031;SDS011;51593;55.714;37.436;2022-12-11T07:54:16;26.10;;;11.52;;
65031;SDS011;51593;55.714;37.436;2022-12-11T07:56:43;35.80;;;14.18;;
65031;SDS011;51593;55.714;37.436;2022-12-11T07:59:09;32.08;;;13.82;;
65031;SDS011;51593;55.714;37.436;2022-12-11T08:01:35;30.13;;;14.20;;
65031;SDS011;51593;55.714;37.436;2022-12-11T08:04:06;30.45;;;12.43;;
65031;SDS011;51593;55.714;37.436;2022-12-11T08:06:34;28.60;;;13.68;;
65031;SDS011;51593;55.714;37.436;2022-12-11T08:09:03;33.88;;;13.35;;
65031;SDS011;51593;55.714;37.436;2022-12-11T08:11:31;32.72;;;14.25;;
65031;SDS011;51593;55.714;37.436;2022-12-11T08:13:57;31.38;;;13.82;;
65031;SDS011;51593;55.714;37.436;2022-12-11T08:16:24;31.77;;;13.98;;
65031;SDS011;51593;55.714;37.436;2022-12-11T08:18:49;33.70;;;13.43;;
65031;SDS011;51593;55.714;37.436;2022-12-11T08:21:17;28.33;;;13.93;;
65031;SDS011;51593;55.714;37.436;2022-12-11T08:23:47;30.08;;;13.80;;
65031;SDS011;51593;55.714;37.436;2022-12-11T08:26:16;30.95;;;12.98;;
65031;SDS011;51593;55.714;37.436;2022-12-11T08:28:46;29.25;;;13.35;;
65031;SDS011;51593;55.714;37.436;2022-12-11T08:31:13;28.85;;;14.32;;
65031;SDS011;51593;55.714;37.436;2022-12-11T08:33:40;38.47;;;14.93;;
65031;SDS011;51593;55.714;37.436;2022-12-11T08:36:12;29.08;;;14.32;;
65031;SDS011;51593;55.714;37.436;2022-12-11T08:38:39;27.70;;;13.50;;
65031;SDS011;51593;55.714;37.436;2022-12-11T08:41:14;34.08;;;14.38;;
65031;SDS011;51593;55.714;37.436;2022-12-11T08:43:41;29.15;;;14.57;;
65031;SDS011;51593;55.714;37.436;2022-12-11T08:46:08;32.65;;;14.25;;
65031;SDS011;51593;55.714;37.436;2022-12-11T08:48:35;38.72;;;15.00;;
65031;SDS011;51593;55.714;37.436;2022-12-11T08:51:03;32.03;;;14.65;;
65031;SDS011;51593;55.714;37.436;2022-12-11T08:53:30;31.58;;;13.77;;
65031;SDS011;51593;55.714;37.436;2022-12-11T08:56:04;32.78;;;14.35;;
65031;SDS011;51593;55.714;37.436;2022-12-11T08:58:31;33.70;;;14.95;;
65031;SDS011;51593;55.714;37.436;2022-12-11T09:00:57;30.85;;;14.07;;
65031;SDS011;51593;55.714;37.436;2022-12-11T09:03:23;25.73;;;13.30;;
65031;SDS011;51593;55.714;37.436;2022-12-11T09:05:49;34.63;;;17.00;;
65031;SDS011;51593;55.714;37.436;2022-12-11T09:08:15;31.85;;;15.73;;
65031;SDS011;51593;55.714;37.436;2022-12-11T09:10:40;41.95;;;18.48;;
65031;SDS011;51593;55.714;37.436;2022-12-11T09:13:06;35.40;;;18.20;;
65031;SDS011;51593;55.714;37.436;2022-12-11T09:15:32;39.80;;;21.25;;
65031;SDS011;51593;55.714;37.436;2022-12-11T09:17:58;31.77;;;16.17;;
65031;SDS011;51593;55.714;37.436;2022-12-11T09:20:24;32.95;;;16.48;;
65031;SDS011;51593;55.714;37.436;2022-12-11T09:22:50;31.33;;;14.70;;
65031;SDS011;51593;55.714;37.436;2022-12-11T09:25:16;43.55;;;21.15;;
65031;SDS011;51593;55.714;37.436;2022-12-11T09:27:41;32.60;;;15.75;;
65031;SDS011;51593;55.714;37.436;2022-12-11T09:30:07;28.92;;;15.45;;
65031;SDS011;51593;55.714;37.436;2022-12-11T09:32:33;33.15;;;15.77;;
65031;SDS011;51593;55.714;37.436;2022-12-11T09:34:59;31.40;;;15.90;;
65031;SDS011;51593;55.714;37.436;2022-12-11T09:37:25;43.78;;;16.17;;
65031;SDS011;51593;55.714;37.436;2022-12-11T09:39:51;27.38;;;14.80;;
65031;SDS011;51593;55.714;37.436;2022-12-11T09:42:19;34.95;;;16.60;;
65031;SDS011;51593;55.714;37.436;2022-12-11T09:44:50;32.22;;;16.70;;
65031;SDS011;51593;55.714;37.436;2022-12-11T09:47:19;35.53;;;17.85;;
65031;SDS011;51593;55.714;37.436;2022-12-11T09:49:49;42.67;;;24.92;;
65031;SDS011;51593;55.714;37.436;2022-12-11T09:52:30;34.33;;;17.33;;
65031;SDS011;51593;55.714;37.436;2022-12-11T09:54:59;42.03;;;24.10;;
65031;SDS011;51593;55.714;37.436;2022-12-11T10:00:21;36.00;;;17.50;;
65031;SDS011;51593;55.714;37.436;2022-12-11T10:03:17;31.73;;;16.45;;
65031;SDS011;51593;55.714;37.436;2022-12-11T10:14:03;35.28;;;16.35;;
65031;SDS011;51593;55.714;37.436;2022-12-11T10:16:50;31.95;;;16.08;;
65031;SDS011;51593;55.714;37.436;2022-12-11T10:19:26;32.83;;;16.10;;
65031;SDS011;51593;55.714;37.436;2022-12-11T10:21:53;37.37;;;16.30;;
65031;SDS011;51593;55.714;37.436;2022-12-11T10:24:21;31.52;;;16.33;;
65031;SDS011;51593;55.714;37.436;2022-12-11T10:26:54;33.20;;;16.55;;
65031;SDS011;51593;55.714;37.436;2022-12-11T10:29:23;36.90;;;17.05;;
65031;SDS011;51593;55.714;37.436;2022-12-11T10:31:56;30.30;;;15.73;;
65031;SDS011;51593;55.714;37.436;2022-12-11T10:36:48;29.63;;;15.77;;
65031;SDS011;51593;55.714;37.436;2022-12-11T10:39:15;33.08;;;16.95;;
65031;SDS011;51593;55.714;37.436;2022-12-11T10:41:43;30.27;;;15.77;;
65031;SDS011;51593;55.714;37.436;2022-12-11T10:47:12;41.53;;;16.70;;
65031;SDS011;51593;55.714;37.436;2022-12-11T10:52:47;44.20;;;18.58;;
65031;SDS011;51593;55.714;37.436;2022-12-11T10:55:19;36.58;;;17.05;;
65031;SDS011;51593;55.714;37.436;2022-12-11T10:57:52;39.72;;;18.80;;
65031;SDS011;51593;55.714;37.436;2022-12-11T11:00:31;36.70;;;16.92;;
65031;SDS011;51593;55.714;37.436;2022-12-11T11:03:05;39.60;;;18.40;;
65031;SDS011;51593;55.714;37.436;2022-12-11T11:05:43;42.35;;;18.30;;
65031;SDS011;51593;55.714;37.436;2022-12-11T11:08:19;31.95;;;17.88;;
65031;SDS011;51593;55.714;37.436;2022-12-11T11:10:53;32.70;;;17.45;;
65031;SDS011;51593;55.714;37.436;2022-12-11T11:13:24;35.95;;;17.23;;
65031;SDS011;51593;55.714;37.436;2022-12-11T11:16:24;42.17;;;17.88;;
65031;SDS011;51593;55.714;37.436;2022-12-11T11:18:51;31.40;;;16.17;;
65031;SDS011;51593;55.714;37.436;2022-12-11T11:21:19;36.42;;;17.60;;
65031;SDS011;51593;55.714;37.436;2022-12-11T11:23:47;32.53;;;16.35;;
65031;SDS011;51593;55.714;37.436;2022-12-11T11:26:13;37.78;;;17.80;;
65031;SDS011;51593;55.714;37.436;2022-12-11T11:28:40;33.22;;;16.10;;
65031;SDS011;51593;55.714;37.436;2022-12-11T11:31:12;32.05;;;15.85;;
65031;SDS011;51593;55.714;37.436;2022-12-11T11:36:28;33.58;;;17.05;;
65031;SDS011;51593;55.714;37.436;2022-12-11T11:44:39;31.17;;;16.35;;
65031;SDS011;51593;55.714;37.436;2022-12-11T11:47:20;35.25;;;16.67;;
65031;SDS011;51593;55.714;37.436;2022-12-11T11:52:23;28.33;;;16.17;;
65031;SDS011;51593;55.714;37.436;2022-12-11T12:00:28;37.05;;;16.13;;
65031;SDS011;51593;55.714;37.436;2022-12-11T12:02:58;34.47;;;16.08;;
65031;SDS011;51593;55.714;37.436;2022-12-11T12:05:27;29.00;;;13.88;;
65031;SDS011;51593;55.714;37.436;2022-12-11T12:08:18;34.20;;;14.57;;
65031;SDS011;51593;55.714;37.436;2022-12-11T12:21:57;23.05;;;12.07;;
65031;SDS011;51593;55.714;37.436;2022-12-11T12:24:36;24.25;;;11.55;;
65031;SDS011;51593;55.714;37.436;2022-12-11T12:27:27;24.88;;;12.40;;
65031;SDS011;51593;55.714;37.436;2022-12-11T12:35:37;22.63;;;11.88;;
65031;SDS011;51593;55.714;37.436;2022-12-11T12:52:18;23.08;;;11.18;;
65031;SDS011;51593;55.714;37.436;2022-12-11T12:54:47;17.65;;;10.35;;
65031;SDS011;51593;55.714;37.436;2022-12-11T12:57:35;16.73;;;9.60;;
65031;SDS011;51593;55.714;37.436;2022-12-11T13:00:02;19.33;;;11.05;;
65031;SDS011;51593;55.714;37.436;2022-12-11T13:02:29;22.10;;;10.70;;
65031;SDS011;51593;55.714;37.436;2022-12-11T13:04:57;21.50;;;11.23;;
65031;SDS011;51593;55.714;37.436;2022-12-11T13:07:29;20.10;;;10.60;;
65031;SDS011;51593;55.714;37.436;2022-12-11T13:10:02;22.65;;;11.43;;
65031;SDS011;51593;55.714;37.436;2022-12-11T13:12:46;20.92;;;10.68;;
65031;SDS011;51593;55.714;37.436;2022-12-11T13:20:53;20.15;;;10.73;;
65031;SDS011;51593;55.714;37.436;2022-12-11T13:26:00;18.85;;;10.95;;
65031;SDS011;51593;55.714;37.436;2022-12-11T13:28:33;17.27;;;9.52;;
65031;SDS011;51593;55.714;37.436;2022-12-11T13:33:42;17.13;;;9.10;;
65031;SDS011;51593;55.714;37.436;2022-12-11T13:38:36;17.67;;;9.30;;
65031;SDS011;51593;55.714;37.436;2022-12-11T13:41:04;18.42;;;9.82;;
65031;SDS011;51593;55.714;37.436;2022-12-11T13:43:34;20.98;;;10.77;;
65031;SDS011;51593;55.714;37.436;2022-12-11T13:46:05;16.90;;;8.68;;
65031;SDS011;51593;55.714;37.436;2022-12-11T13:51:33;14.18;;;7.72;;
65031;SDS011;51593;55.714;37.436;2022-12-11T13:56:54;19.08;;;9.07;;
65031;SDS011;51593;55.714;37.436;2022-12-11T13:59:33;15.52;;;8.18;;
65031;SDS011;51593;55.714;37.436;2022-12-11T14:02:14;20.17;;;10.18;;
65031;SDS011;51593;55.714;37.436;2022-12-11T14:05:09;12.82;;;6.38;;
65031;SDS011;51593;55.714;37.436;2022-12-11T14:07:37;14.35;;;8.68;;
65031;SDS011;51593;55.714;37.436;2022-12-11T14:10:08;15.48;;;8.57;;
65031;SDS011;51593;55.714;37.436;2022-12-11T14:12:41;16.15;;;7.60;;
65031;SDS011;51593;55.714;37.436;2022-12-11T14:17:40;16.08;;;8.00;;
65031;SDS011;51593;55.714;37.436;2022-12-11T14:20:14;16.42;;;8.93;;
65031;SDS011;51593;55.714;37.436;2022-12-11T14:25:31;13.05;;;7.40;;
65031;SDS011;51593;55.714;37.436;2022-12-11T14:27:57;15.38;;;8.32;;
65031;SDS011;51593;55.714;37.436;2022-12-11T14:30:23;14.63;;;7.82;;
65031;SDS011;51593;55.714;37.436;2022-12-11T14:32:59;11.73;;;6.63;;
65031;SDS011;51593;55.714;37.436;2022-12-11T14:37:53;12.95;;;7.25;;
65031;SDS011;51593;55.714;37.436;2022-12-11T14:40:21;14.18;;;7.60;;
65031;SDS011;51593;55.714;37.436;2022-12-11T14:42:51;10.40;;;6.38;;
65031;SDS011;51593;55.714;37.436;2022-12-11T14:47:47;13.05;;;7.40;;
65031;SDS011;51593;55.714;37.436;2022-12-11T14:52:43;15.70;;;7.35;;
65031;SDS011;51593;55.714;37.436;2022-12-11T14:55:17;17.23;;;7.57;;
65031;SDS011;51593;55.714;37.436;2022-12-11T14:57:46;13.98;;;7.88;;
65031;SDS011;51593;55.714;37.436;2022-12-11T15:00:25;13.32;;;6.72;;
65031;SDS011;51593;55.714;37.436;2022-12-11T15:05:52;13.57;;;7.55;;
65031;SDS011;51593;55.714;37.436;2022-12-11T15:08:20;13.73;;;6.25;;
65031;SDS011;51593;55.714;37.436;2022-12-11T15:13:25;12.95;;;8.02;;
65031;SDS011;51593;55.714;37.436;2022-12-11T15:15:51;11.10;;;6.55;;
65031;SDS011;51593;55.714;37.436;2022-12-11T15:18:19;10.30;;;5.90;;
65031;SDS011;51593;55.714;37.436;2022-12-11T15:20:56;14.63;;;7.78;;
65031;SDS011;51593;55.714;37.436;2022-12-11T15:23:33;12.57;;;6.97;;
65031;SDS011;51593;55.714;37.436;2022-12-11T15:26:12;13.90;;;7.88;;
65031;SDS011;51593;55.714;37.436;2022-12-11T15:28:38;12.10;;;6.88;;
65031;SDS011;51593;55.714;37.436;2022-12-11T15:31:05;15.20;;;7.78;;
65031;SDS011;51593;55.714;37.436;2022-12-11T15:33:46;11.38;;;6.63;;
65031;SDS011;51593;55.714;37.436;2022-12-11T15:36:31;14.32;;;7.45;;
65031;SDS011;51593;55.714;37.436;2022-12-11T15:38:59;14.45;;;8.00;;
65031;SDS011;51593;55.714;37.436;2022-12-11T15:41:25;14.63;;;6.70;;
65031;SDS011;51593;55.714;37.436;2022-12-11T15:43:52;13.30;;;6.88;;
65031;SDS011;51593;55.714;37.436;2022-12-11T15:46:22;13.23;;;7.43;;
65031;SDS011;51593;55.714;37.436;2022-12-11T15:48:48;21.92;;;8.75;;
65031;SDS011;51593;55.714;37.436;2022-12-11T15:51:15;14.32;;;7.68;;
65031;SDS011;51593;55.714;37.436;2022-12-11T15:53:47;15.35;;;6.15;;
65031;SDS011;51593;55.714;37.436;2022-12-11T15:56:16;14.13;;;7.93;;
65031;SDS011;51593;55.714;37.436;2022-12-11T15:58:45;10.00;;;5.70;;
65031;SDS011;51593;55.714;37.436;2022-12-11T16:01:12;12.10;;;5.97;;
65031;SDS011;51593;55.714;37.436;2022-12-11T16:03:40;11.23;;;6.28;;
65031;SDS011;51593;55.714;37.436;2022-12-11T16:06:05;15.10;;;7.35;;
65031;SDS011;51593;55.714;37.436;2022-12-11T16:08:35;13.57;;;7.50;;
65031;SDS011;51593;55.714;37.436;2022-12-11T16:11:01;13.07;;;7.47;;
65031;SDS011;51593;55.714;37.436;2022-12-11T16:13:27;13.70;;;7.88;;
65031;SDS011;51593;55.714;37.436;2022-12-11T16:15:53;13.23;;;7.30;;
65031;SDS011;51593;55.714;37.436;2022-12-11T16:18:20;16.10;;;7.43;;
65031;SDS011;51593;55.714;37.436;2022-12-11T16:20:47;13.15;;;8.10;;
65031;SDS011;51593;55.714;37.436;2022-12-11T16:23:15;13.13;;;7.15;;
65031;SDS011;51593;55.714;37.436;2022-12-11T16:25:42;15.80;;;8.05;;
65031;SDS011;51593;55.714;37.436;2022-12-11T16:28:09;13.63;;;6.95;;
65031;SDS011;51593;55.714;37.436;2022-12-11T16:30:36;16.35;;;8.45;;